sensor_id;sensor_type;location;lat;lon;timestamp;P1;durP1;ratioP1;P2;durP2;ratioP2
18114;SDS011;9184;54.390;18.620;2024-02-21T00:00:22;23.42;;;6.88;;
18114;SDS011;9184;54.390;18.620;2024-02-21T00:00:53;15.30;;;5.22;;
18114;SDS011;9184;54.390;18.620;2024-02-21T00:01:23;17.17;;;4.85;;
18114;SDS011;9184;54.390;18.620;2024-02-21T00:01:54;17.30;;;4.28;;
18114;SDS011;9184;54.390;18.620;2024-02-21T00:02:24;21.50;;;5.28;;
18114;SDS011;9184;54.390;18.620;2024-02-21T00:02:56;20.48;;;5.60;;
18114;SDS011;9184;54.390;18.620;2024-02-21T00:03:29;20.92;;;5.53;;
18114;SDS011;9184;54.390;18.620;2024-02-21T00:04:00;17.52;;;4.95;;
18114;SDS011;9184;54.390;18.620;2024-02-21T00:04:31;21.88;;;5.93;;
18114;SDS011;9184;54.390;18.620;2024-02-21T00:05:02;23.15;;;6.65;;
18114;SDS011;9184;54.390;18.620;2024-02-21T00:05:33;27.27;;;7.75;;
18114;SDS011;9184;54.390;18.620;2024-02-21T00:06:04;26.55;;;7.63;;
18114;SDS011;9184;54.390;18.620;2024-02-21T00:06:34;20.98;;;7.32;;
18114;SDS011;9184;54.390;18.620;2024-02-21T00:07:07;20.42;;;7.60;;
18114;SDS011;9184;54.390;18.620;2024-02-21T00:07:38;18.08;;;6.72;;
18114;SDS011;9184;54.390;18.620;2024-02-21T00:08:08;18.10;;;6.63;;
18114;SDS011;9184;54.390;18.620;2024-02-21T00:08:39;22.02;;;5.57;;
18114;SDS011;9184;54.390;18.620;2024-02-21T00:09:12;18.95;;;6.50;;
18114;SDS011;9184;54.390;18.620;2024-02-21T00:09:42;25.40;;;7.88;;
18114;SDS011;9184;54.390;18.620;2024-02-21T00:10:13;26.52;;;8.00;;
18114;SDS011;9184;54.390;18.620;2024-02-21T00:10:44;27.27;;;7.22;;
18114;SDS011;9184;54.390;18.620;2024-02-21T00:11:16;33.13;;;6.90;;
18114;SDS011;9184;54.390;18.620;2024-02-21T00:11:47;17.60;;;5.38;;
18114;SDS011;9184;54.390;18.620;2024-02-21T00:12:17;14.38;;;5.13;;
18114;SDS011;9184;54.390;18.620;2024-02-21T00:12:49;17.88;;;5.18;;
18114;SDS011;9184;54.390;18.620;2024-02-21T00:13:20;19.83;;;4.63;;
18114;SDS011;9184;54.390;18.620;2024-02-21T00:13:50;19.77;;;5.45;;
18114;SDS011;9184;54.390;18.620;2024-02-21T00:14:21;14.18;;;5.22;;
18114;SDS011;9184;54.390;18.620;2024-02-21T00:14:52;18.95;;;4.88;;
18114;SDS011;9184;54.390;18.620;2024-02-21T00:15:23;18.37;;;5.17;;
18114;SDS011;9184;54.390;18.620;2024-02-21T00:15:54;22.50;;;5.15;;
18114;SDS011;9184;54.390;18.620;2024-02-21T00:16:24;16.30;;;4.70;;
18114;SDS011;9184;54.390;18.620;2024-02-21T00:16:56;21.48;;;5.32;;
18114;SDS011;9184;54.390;18.620;2024-02-21T00:17:26;21.57;;;5.73;;
18114;SDS011;9184;54.390;18.620;2024-02-21T00:17:57;19.95;;;4.53;;
18114;SDS011;9184;54.390;18.620;2024-02-21T00:18:27;24.80;;;6.32;;
18114;SDS011;9184;54.390;18.620;2024-02-21T00:18:59;21.80;;;5.43;;
18114;SDS011;9184;54.390;18.620;2024-02-21T00:19:29;17.92;;;4.47;;
18114;SDS011;9184;54.390;18.620;2024-02-21T00:20:00;18.83;;;4.55;;
18114;SDS011;9184;54.390;18.620;2024-02-21T00:20:31;16.10;;;4.97;;
18114;SDS011;9184;54.390;18.620;2024-02-21T00:21:02;20.98;;;5.63;;
18114;SDS011;9184;54.390;18.620;2024-02-21T00:21:33;18.02;;;5.30;;
18114;SDS011;9184;54.390;18.620;2024-02-21T00:22:04;24.70;;;5.45;;
18114;SDS011;9184;54.390;18.620;2024-02-21T00:22:35;16.95;;;4.88;;
18114;SDS011;9184;54.390;18.620;2024-02-21T00:23:05;25.40;;;5.57;;
18114;SDS011;9184;54.390;18.620;2024-02-21T00:23:36;22.45;;;4.93;;
18114;SDS011;9184;54.390;18.620;2024-02-21T00:24:07;21.23;;;4.68;;
18114;SDS011;9184;54.390;18.620;2024-02-21T00:24:37;14.30;;;4.85;;
18114;SDS011;9184;54.390;18.620;2024-02-21T00:25:08;18.52;;;5.57;;
18114;SDS011;9184;54.390;18.620;2024-02-21T00:25:38;16.98;;;5.22;;
18114;SDS011;9184;54.390;18.620;2024-02-21T00:26:11;21.47;;;5.50;;
18114;SDS011;9184;54.390;18.620;2024-02-21T00:26:43;16.98;;;4.88;;
18114;SDS011;9184;54.390;18.620;2024-02-21T00:27:14;25.83;;;6.38;;
18114;SDS011;9184;54.390;18.620;2024-02-21T00:27:44;26.30;;;5.75;;
18114;SDS011;9184;54.390;18.620;2024-02-21T00:28:15;21.73;;;6.28;;
18114;SDS011;9184;54.390;18.620;2024-02-21T00:28:46;17.03;;;4.87;;
18114;SDS011;9184;54.390;18.620;2024-02-21T00:29:17;21.23;;;5.10;;
18114;SDS011;9184;54.390;18.620;2024-02-21T00:29:47;23.00;;;6.10;;
18114;SDS011;9184;54.390;18.620;2024-02-21T00:30:17;18.83;;;5.10;;
18114;SDS011;9184;54.390;18.620;2024-02-21T00:30:49;17.97;;;5.97;;
18114;SDS011;9184;54.390;18.620;2024-02-21T00:31:20;20.55;;;5.88;;
18114;SDS011;9184;54.390;18.620;2024-02-21T00:31:51;21.67;;;5.53;;
18114;SDS011;9184;54.390;18.620;2024-02-21T00:32:21;15.17;;;5.00;;
18114;SDS011;9184;54.390;18.620;2024-02-21T00:32:53;14.48;;;5.72;;
18114;SDS011;9184;54.390;18.620;2024-02-21T00:33:23;16.20;;;5.70;;
18114;SDS011;9184;54.390;18.620;2024-02-21T00:33:54;17.48;;;4.72;;
18114;SDS011;9184;54.390;18.620;2024-02-21T00:34:24;17.35;;;4.75;;
18114;SDS011;9184;54.390;18.620;2024-02-21T00:34:56;18.10;;;4.63;;
18114;SDS011;9184;54.390;18.620;2024-02-21T00:35:26;23.17;;;4.68;;
18114;SDS011;9184;54.390;18.620;2024-02-21T00:35:57;24.85;;;5.07;;
18114;SDS011;9184;54.390;18.620;2024-02-21T00:36:28;24.80;;;5.30;;
18114;SDS011;9184;54.390;18.620;2024-02-21T00:36:59;24.70;;;5.30;;
18114;SDS011;9184;54.390;18.620;2024-02-21T00:37:29;23.83;;;5.68;;
18114;SDS011;9184;54.390;18.620;2024-02-21T00:38:00;29.13;;;6.47;;
18114;SDS011;9184;54.390;18.620;2024-02-21T00:38:30;22.77;;;5.80;;
18114;SDS011;9184;54.390;18.620;2024-02-21T00:39:02;23.17;;;6.70;;
18114;SDS011;9184;54.390;18.620;2024-02-21T00:39:32;23.70;;;6.80;;
18114;SDS011;9184;54.390;18.620;2024-02-21T00:40:03;24.95;;;7.65;;
18114;SDS011;9184;54.390;18.620;2024-02-21T00:40:35;26.17;;;7.30;;
18114;SDS011;9184;54.390;18.620;2024-02-21T00:41:06;20.90;;;5.97;;
18114;SDS011;9184;54.390;18.620;2024-02-21T00:41:36;23.88;;;6.50;;
18114;SDS011;9184;54.390;18.620;2024-02-21T00:42:08;25.60;;;6.45;;
18114;SDS011;9184;54.390;18.620;2024-02-21T00:42:40;20.05;;;6.15;;
18114;SDS011;9184;54.390;18.620;2024-02-21T00:43:11;22.48;;;5.90;;
18114;SDS011;9184;54.390;18.620;2024-02-21T00:43:41;27.97;;;6.47;;
18114;SDS011;9184;54.390;18.620;2024-02-21T00:44:14;18.42;;;4.93;;
18114;SDS011;9184;54.390;18.620;2024-02-21T00:44:44;23.65;;;5.00;;
18114;SDS011;9184;54.390;18.620;2024-02-21T00:45:15;25.02;;;6.05;;
18114;SDS011;9184;54.390;18.620;2024-02-21T00:45:45;19.45;;;5.28;;
18114;SDS011;9184;54.390;18.620;2024-02-21T00:46:17;24.58;;;5.45;;
18114;SDS011;9184;54.390;18.620;2024-02-21T00:46:47;20.65;;;5.05;;
18114;SDS011;9184;54.390;18.620;2024-02-21T00:47:18;19.27;;;5.25;;
18114;SDS011;9184;54.390;18.620;2024-02-21T00:47:48;25.92;;;5.40;;
18114;SDS011;9184;54.390;18.620;2024-02-21T00:48:19;25.98;;;5.95;;
18114;SDS011;9184;54.390;18.620;2024-02-21T00:48:50;20.30;;;5.47;;
18114;SDS011;9184;54.390;18.620;2024-02-21T00:49:22;17.15;;;4.90;;
18114;SDS011;9184;54.390;18.620;2024-02-21T00:49:54;20.27;;;5.07;;
18114;SDS011;9184;54.390;18.620;2024-02-21T00:50:25;18.53;;;5.20;;
18114;SDS011;9184;54.390;18.620;2024-02-21T00:50:56;16.58;;;4.88;;
18114;SDS011;9184;54.390;18.620;2024-02-21T00:51:26;22.05;;;5.47;;
18114;SDS011;9184;54.390;18.620;2024-02-21T00:51:57;22.63;;;5.33;;
18114;SDS011;9184;54.390;18.620;2024-02-21T00:52:27;23.08;;;5.60;;
18114;SDS011;9184;54.390;18.620;2024-02-21T00:52:59;19.83;;;5.23;;
18114;SDS011;9184;54.390;18.620;2024-02-21T00:53:30;19.50;;;5.07;;
18114;SDS011;9184;54.390;18.620;2024-02-21T00:54:00;18.50;;;5.05;;
18114;SDS011;9184;54.390;18.620;2024-02-21T00:54:31;29.27;;;6.40;;
18114;SDS011;9184;54.390;18.620;2024-02-21T00:55:03;21.60;;;5.80;;
18114;SDS011;9184;54.390;18.620;2024-02-21T00:55:34;21.07;;;5.43;;
18114;SDS011;9184;54.390;18.620;2024-02-21T00:56:05;22.17;;;4.87;;
18114;SDS011;9184;54.390;18.620;2024-02-21T00:56:35;18.52;;;5.65;;
18114;SDS011;9184;54.390;18.620;2024-02-21T00:57:07;31.83;;;6.47;;
18114;SDS011;9184;54.390;18.620;2024-02-21T00:57:38;21.87;;;5.57;;
18114;SDS011;9184;54.390;18.620;2024-02-21T00:58:09;15.73;;;5.18;;
18114;SDS011;9184;54.390;18.620;2024-02-21T00:58:39;18.00;;;5.47;;
18114;SDS011;9184;54.390;18.620;2024-02-21T00:59:12;23.17;;;6.43;;
18114;SDS011;9184;54.390;18.620;2024-02-21T00:59:43;19.63;;;5.63;;
18114;SDS011;9184;54.390;18.620;2024-02-21T01:00:14;21.20;;;5.57;;
18114;SDS011;9184;54.390;18.620;2024-02-21T01:00:45;16.93;;;5.13;;
18114;SDS011;9184;54.390;18.620;2024-02-21T01:01:20;20.30;;;5.07;;
18114;SDS011;9184;54.390;18.620;2024-02-21T01:01:51;23.25;;;6.05;;
18114;SDS011;9184;54.390;18.620;2024-02-21T01:02:21;20.98;;;6.43;;
18114;SDS011;9184;54.390;18.620;2024-02-21T01:02:52;15.23;;;5.50;;
18114;SDS011;9184;54.390;18.620;2024-02-21T01:03:23;33.38;;;6.70;;
18114;SDS011;9184;54.390;18.620;2024-02-21T01:03:54;16.67;;;5.07;;
18114;SDS011;9184;54.390;18.620;2024-02-21T01:04:24;18.77;;;6.07;;
18114;SDS011;9184;54.390;18.620;2024-02-21T01:04:56;32.47;;;6.90;;
18114;SDS011;9184;54.390;18.620;2024-02-21T01:05:26;17.90;;;5.50;;
18114;SDS011;9184;54.390;18.620;2024-02-21T01:05:59;18.95;;;6.07;;
18114;SDS011;9184;54.390;18.620;2024-02-21T01:06:29;18.02;;;6.35;;
18114;SDS011;9184;54.390;18.620;2024-02-21T01:07:01;22.02;;;5.90;;
18114;SDS011;9184;54.390;18.620;2024-02-21T01:07:31;28.38;;;6.15;;
18114;SDS011;9184;54.390;18.620;2024-02-21T01:08:02;17.75;;;5.47;;
18114;SDS011;9184;54.390;18.620;2024-02-21T01:08:32;20.45;;;5.43;;
18114;SDS011;9184;54.390;18.620;2024-02-21T01:09:04;20.27;;;5.47;;
18114;SDS011;9184;54.390;18.620;2024-02-21T01:09:34;19.60;;;5.47;;
18114;SDS011;9184;54.390;18.620;2024-02-21T01:10:06;25.15;;;6.00;;
18114;SDS011;9184;54.390;18.620;2024-02-21T01:10:36;19.60;;;4.97;;
18114;SDS011;9184;54.390;18.620;2024-02-21T01:11:08;28.60;;;6.47;;
18114;SDS011;9184;54.390;18.620;2024-02-21T01:11:38;22.00;;;6.83;;
18114;SDS011;9184;54.390;18.620;2024-02-21T01:12:09;28.15;;;6.22;;
18114;SDS011;9184;54.390;18.620;2024-02-21T01:12:41;25.17;;;6.47;;
18114;SDS011;9184;54.390;18.620;2024-02-21T01:13:12;15.73;;;5.20;;
18114;SDS011;9184;54.390;18.620;2024-02-21T01:13:43;22.40;;;5.50;;
18114;SDS011;9184;54.390;18.620;2024-02-21T01:14:13;22.75;;;5.68;;
18114;SDS011;9184;54.390;18.620;2024-02-21T01:14:47;22.60;;;5.10;;
18114;SDS011;9184;54.390;18.620;2024-02-21T01:15:19;22.05;;;5.60;;
18114;SDS011;9184;54.390;18.620;2024-02-21T01:15:50;21.10;;;5.57;;
18114;SDS011;9184;54.390;18.620;2024-02-21T01:16:21;22.15;;;5.60;;
18114;SDS011;9184;54.390;18.620;2024-02-21T01:16:51;24.33;;;5.87;;
18114;SDS011;9184;54.390;18.620;2024-02-21T01:17:24;23.03;;;5.93;;
18114;SDS011;9184;54.390;18.620;2024-02-21T01:17:54;13.18;;;4.82;;
18114;SDS011;9184;54.390;18.620;2024-02-21T01:18:25;24.20;;;6.00;;
18114;SDS011;9184;54.390;18.620;2024-02-21T01:18:56;28.30;;;6.33;;
18114;SDS011;9184;54.390;18.620;2024-02-21T01:19:27;19.08;;;5.20;;
18114;SDS011;9184;54.390;18.620;2024-02-21T01:19:58;26.45;;;6.55;;
18114;SDS011;9184;54.390;18.620;2024-02-21T01:20:28;21.75;;;5.72;;
18114;SDS011;9184;54.390;18.620;2024-02-21T01:20:59;25.30;;;6.07;;
18114;SDS011;9184;54.390;18.620;2024-02-21T01:21:30;23.65;;;5.53;;
18114;SDS011;9184;54.390;18.620;2024-02-21T01:22:01;19.20;;;5.20;;
18114;SDS011;9184;54.390;18.620;2024-02-21T01:22:31;31.17;;;7.07;;
18114;SDS011;9184;54.390;18.620;2024-02-21T01:23:02;25.10;;;6.20;;
18114;SDS011;9184;54.390;18.620;2024-02-21T01:23:34;27.08;;;6.38;;
18114;SDS011;9184;54.390;18.620;2024-02-21T01:24:05;26.55;;;6.15;;
18114;SDS011;9184;54.390;18.620;2024-02-21T01:24:35;30.73;;;5.97;;
18114;SDS011;9184;54.390;18.620;2024-02-21T01:25:07;18.70;;;5.07;;
18114;SDS011;9184;54.390;18.620;2024-02-21T01:25:38;22.93;;;4.93;;
18114;SDS011;9184;54.390;18.620;2024-02-21T01:26:09;29.15;;;6.30;;
18114;SDS011;9184;54.390;18.620;2024-02-21T01:26:43;24.20;;;5.53;;
18114;SDS011;9184;54.390;18.620;2024-02-21T01:27:13;17.35;;;6.03;;
18114;SDS011;9184;54.390;18.620;2024-02-21T01:27:46;18.60;;;5.68;;
18114;SDS011;9184;54.390;18.620;2024-02-21T01:28:17;22.15;;;6.20;;
18114;SDS011;9184;54.390;18.620;2024-02-21T01:28:47;22.98;;;6.10;;
18114;SDS011;9184;54.390;18.620;2024-02-21T01:29:18;18.67;;;5.57;;
18114;SDS011;9184;54.390;18.620;2024-02-21T01:29:49;20.63;;;6.17;;
18114;SDS011;9184;54.390;18.620;2024-02-21T01:30:20;24.95;;;5.80;;
18114;SDS011;9184;54.390;18.620;2024-02-21T01:30:50;24.38;;;6.55;;
18114;SDS011;9184;54.390;18.620;2024-02-21T01:31:22;29.30;;;6.63;;
18114;SDS011;9184;54.390;18.620;2024-02-21T01:31:53;20.95;;;5.78;;
18114;SDS011;9184;54.390;18.620;2024-02-21T01:32:23;22.30;;;6.20;;
18114;SDS011;9184;54.390;18.620;2024-02-21T01:32:54;26.23;;;7.20;;
18114;SDS011;9184;54.390;18.620;2024-02-21T01:33:25;33.37;;;7.80;;
18114;SDS011;9184;54.390;18.620;2024-02-21T01:33:56;22.55;;;6.82;;
18114;SDS011;9184;54.390;18.620;2024-02-21T01:34:28;27.25;;;7.07;;
18114;SDS011;9184;54.390;18.620;2024-02-21T01:34:58;33.33;;;7.47;;
18114;SDS011;9184;54.390;18.620;2024-02-21T01:35:29;23.45;;;6.35;;
18114;SDS011;9184;54.390;18.620;2024-02-21T01:36:00;31.40;;;7.50;;
18114;SDS011;9184;54.390;18.620;2024-02-21T01:36:31;21.93;;;7.00;;
18114;SDS011;9184;54.390;18.620;2024-02-21T01:37:01;23.45;;;7.18;;
18114;SDS011;9184;54.390;18.620;2024-02-21T01:37:34;21.65;;;6.38;;
18114;SDS011;9184;54.390;18.620;2024-02-21T01:38:05;20.70;;;6.93;;
18114;SDS011;9184;54.390;18.620;2024-02-21T01:38:36;23.43;;;6.47;;
18114;SDS011;9184;54.390;18.620;2024-02-21T01:39:06;27.50;;;6.38;;
18114;SDS011;9184;54.390;18.620;2024-02-21T01:39:37;33.10;;;6.87;;
18114;SDS011;9184;54.390;18.620;2024-02-21T01:40:09;24.50;;;6.27;;
18114;SDS011;9184;54.390;18.620;2024-02-21T01:40:39;25.83;;;6.80;;
18114;SDS011;9184;54.390;18.620;2024-02-21T01:41:10;19.90;;;6.85;;
18114;SDS011;9184;54.390;18.620;2024-02-21T01:41:40;30.02;;;7.63;;
18114;SDS011;9184;54.390;18.620;2024-02-21T01:42:12;22.53;;;5.80;;
18114;SDS011;9184;54.390;18.620;2024-02-21T01:42:42;18.02;;;6.55;;
18114;SDS011;9184;54.390;18.620;2024-02-21T01:43:18;27.15;;;7.07;;
18114;SDS011;9184;54.390;18.620;2024-02-21T01:43:49;28.30;;;6.38;;
18114;SDS011;9184;54.390;18.620;2024-02-21T01:44:20;22.52;;;7.22;;
18114;SDS011;9184;54.390;18.620;2024-02-21T01:44:51;25.23;;;6.82;;
18114;SDS011;9184;54.390;18.620;2024-02-21T01:45:21;22.90;;;6.22;;
18114;SDS011;9184;54.390;18.620;2024-02-21T01:45:52;29.43;;;6.93;;
18114;SDS011;9184;54.390;18.620;2024-02-21T01:46:23;24.92;;;7.28;;
18114;SDS011;9184;54.390;18.620;2024-02-21T01:46:57;22.00;;;6.30;;
18114;SDS011;9184;54.390;18.620;2024-02-21T01:47:28;21.63;;;6.35;;
18114;SDS011;9184;54.390;18.620;2024-02-21T01:47:59;24.40;;;6.40;;
18114;SDS011;9184;54.390;18.620;2024-02-21T01:48:29;25.42;;;6.95;;
18114;SDS011;9184;54.390;18.620;2024-02-21T01:49:01;25.23;;;7.22;;
18114;SDS011;9184;54.390;18.620;2024-02-21T01:49:31;19.10;;;5.90;;
18114;SDS011;9184;54.390;18.620;2024-02-21T01:50:02;25.00;;;6.75;;
18114;SDS011;9184;54.390;18.620;2024-02-21T01:50:33;25.33;;;7.10;;
18114;SDS011;9184;54.390;18.620;2024-02-21T01:51:04;26.20;;;6.90;;
18114;SDS011;9184;54.390;18.620;2024-02-21T01:51:35;25.07;;;7.67;;
18114;SDS011;9184;54.390;18.620;2024-02-21T01:52:06;26.08;;;6.55;;
18114;SDS011;9184;54.390;18.620;2024-02-21T01:52:37;33.70;;;6.90;;
18114;SDS011;9184;54.390;18.620;2024-02-21T01:53:08;20.45;;;6.45;;
18114;SDS011;9184;54.390;18.620;2024-02-21T01:53:40;25.13;;;5.97;;
18114;SDS011;9184;54.390;18.620;2024-02-21T01:54:12;34.23;;;7.13;;
18114;SDS011;9184;54.390;18.620;2024-02-21T01:54:43;28.67;;;7.10;;
18114;SDS011;9184;54.390;18.620;2024-02-21T01:55:14;24.55;;;6.93;;
18114;SDS011;9184;54.390;18.620;2024-02-21T01:55:47;19.03;;;5.97;;
18114;SDS011;9184;54.390;18.620;2024-02-21T01:56:18;24.35;;;7.35;;
18114;SDS011;9184;54.390;18.620;2024-02-21T01:56:48;23.23;;;6.45;;
18114;SDS011;9184;54.390;18.620;2024-02-21T01:57:19;25.45;;;6.80;;
18114;SDS011;9184;54.390;18.620;2024-02-21T01:57:51;25.33;;;7.07;;
18114;SDS011;9184;54.390;18.620;2024-02-21T01:58:23;25.13;;;7.20;;
18114;SDS011;9184;54.390;18.620;2024-02-21T01:58:54;29.70;;;7.40;;
18114;SDS011;9184;54.390;18.620;2024-02-21T01:59:25;25.13;;;6.50;;
18114;SDS011;9184;54.390;18.620;2024-02-21T01:59:57;25.08;;;7.68;;
18114;SDS011;9184;54.390;18.620;2024-02-21T02:00:27;32.55;;;7.60;;
18114;SDS011;9184;54.390;18.620;2024-02-21T02:00:58;23.23;;;6.38;;
18114;SDS011;9184;54.390;18.620;2024-02-21T02:01:29;31.30;;;7.60;;
18114;SDS011;9184;54.390;18.620;2024-02-21T02:02:01;31.65;;;7.45;;
18114;SDS011;9184;54.390;18.620;2024-02-21T02:02:32;26.25;;;7.47;;
18114;SDS011;9184;54.390;18.620;2024-02-21T02:03:03;15.77;;;5.68;;
18114;SDS011;9184;54.390;18.620;2024-02-21T02:03:34;29.70;;;7.57;;
18114;SDS011;9184;54.390;18.620;2024-02-21T02:04:04;23.77;;;6.82;;
18114;SDS011;9184;54.390;18.620;2024-02-21T02:04:37;31.17;;;7.27;;
18114;SDS011;9184;54.390;18.620;2024-02-21T02:05:08;21.47;;;7.00;;
18114;SDS011;9184;54.390;18.620;2024-02-21T02:05:39;24.92;;;7.07;;
18114;SDS011;9184;54.390;18.620;2024-02-21T02:06:10;28.37;;;8.63;;
18114;SDS011;9184;54.390;18.620;2024-02-21T02:06:41;33.80;;;8.40;;
18114;SDS011;9184;54.390;18.620;2024-02-21T02:07:12;31.00;;;8.02;;
18114;SDS011;9184;54.390;18.620;2024-02-21T02:07:44;28.10;;;8.77;;
18114;SDS011;9184;54.390;18.620;2024-02-21T02:08:16;34.10;;;8.53;;
18114;SDS011;9184;54.390;18.620;2024-02-21T02:08:47;33.10;;;8.40;;
18114;SDS011;9184;54.390;18.620;2024-02-21T02:09:18;30.80;;;7.80;;
18114;SDS011;9184;54.390;18.620;2024-02-21T02:09:48;25.25;;;8.45;;
18114;SDS011;9184;54.390;18.620;2024-02-21T02:10:20;27.20;;;7.88;;
18114;SDS011;9184;54.390;18.620;2024-02-21T02:10:51;29.17;;;8.70;;
18114;SDS011;9184;54.390;18.620;2024-02-21T02:11:22;30.33;;;8.53;;
18114;SDS011;9184;54.390;18.620;2024-02-21T02:11:54;27.10;;;9.38;;
18114;SDS011;9184;54.390;18.620;2024-02-21T02:12:26;27.33;;;8.60;;
18114;SDS011;9184;54.390;18.620;2024-02-21T02:12:57;30.48;;;8.98;;
18114;SDS011;9184;54.390;18.620;2024-02-21T02:13:28;33.42;;;9.02;;
18114;SDS011;9184;54.390;18.620;2024-02-21T02:13:59;30.50;;;9.15;;
18114;SDS011;9184;54.390;18.620;2024-02-21T02:14:33;28.48;;;8.75;;
18114;SDS011;9184;54.390;18.620;2024-02-21T02:15:04;26.40;;;8.85;;
18114;SDS011;9184;54.390;18.620;2024-02-21T02:15:38;36.10;;;9.75;;
18114;SDS011;9184;54.390;18.620;2024-02-21T02:16:08;27.52;;;9.82;;
18114;SDS011;9184;54.390;18.620;2024-02-21T02:16:40;33.75;;;8.60;;
18114;SDS011;9184;54.390;18.620;2024-02-21T02:17:10;37.28;;;9.65;;
18114;SDS011;9184;54.390;18.620;2024-02-21T02:17:41;30.17;;;8.05;;
18114;SDS011;9184;54.390;18.620;2024-02-21T02:18:12;28.10;;;7.35;;
18114;SDS011;9184;54.390;18.620;2024-02-21T02:18:43;23.92;;;7.35;;
18114;SDS011;9184;54.390;18.620;2024-02-21T02:19:14;34.65;;;8.23;;
18114;SDS011;9184;54.390;18.620;2024-02-21T02:19:46;21.80;;;7.03;;
18114;SDS011;9184;54.390;18.620;2024-02-21T02:20:17;28.25;;;7.43;;
18114;SDS011;9184;54.390;18.620;2024-02-21T02:20:48;30.83;;;8.85;;
18114;SDS011;9184;54.390;18.620;2024-02-21T02:21:23;26.00;;;8.25;;
18114;SDS011;9184;54.390;18.620;2024-02-21T02:21:56;27.70;;;8.20;;
18114;SDS011;9184;54.390;18.620;2024-02-21T02:22:29;23.17;;;7.45;;
18114;SDS011;9184;54.390;18.620;2024-02-21T02:22:59;24.45;;;7.20;;
18114;SDS011;9184;54.390;18.620;2024-02-21T02:23:36;26.90;;;7.80;;
18114;SDS011;9184;54.390;18.620;2024-02-21T02:24:06;29.15;;;8.30;;
18114;SDS011;9184;54.390;18.620;2024-02-21T02:25:59;26.90;;;8.45;;
18114;SDS011;9184;54.390;18.620;2024-02-21T02:26:31;25.95;;;7.07;;
18114;SDS011;9184;54.390;18.620;2024-02-21T02:27:02;26.10;;;7.50;;
18114;SDS011;9184;54.390;18.620;2024-02-21T02:27:33;32.07;;;8.47;;
18114;SDS011;9184;54.390;18.620;2024-02-21T02:28:03;31.27;;;8.73;;
18114;SDS011;9184;54.390;18.620;2024-02-21T02:28:35;35.53;;;8.60;;
18114;SDS011;9184;54.390;18.620;2024-02-21T02:29:05;26.47;;;8.13;;
18114;SDS011;9184;54.390;18.620;2024-02-21T02:29:36;29.17;;;8.00;;
18114;SDS011;9184;54.390;18.620;2024-02-21T02:30:07;34.30;;;9.33;;
18114;SDS011;9184;54.390;18.620;2024-02-21T02:30:39;31.27;;;9.20;;
18114;SDS011;9184;54.390;18.620;2024-02-21T02:31:09;20.88;;;8.30;;
18114;SDS011;9184;54.390;18.620;2024-02-21T02:31:41;31.63;;;7.93;;
18114;SDS011;9184;54.390;18.620;2024-02-21T02:32:12;33.10;;;9.40;;
18114;SDS011;9184;54.390;18.620;2024-02-21T02:32:44;31.70;;;8.40;;
18114;SDS011;9184;54.390;18.620;2024-02-21T02:33:14;31.33;;;9.00;;
18114;SDS011;9184;54.390;18.620;2024-02-21T02:33:45;37.08;;;10.07;;
18114;SDS011;9184;54.390;18.620;2024-02-21T02:34:16;32.28;;;10.13;;
18114;SDS011;9184;54.390;18.620;2024-02-21T02:34:47;42.47;;;10.47;;
18114;SDS011;9184;54.390;18.620;2024-02-21T02:35:17;48.43;;;12.30;;
18114;SDS011;9184;54.390;18.620;2024-02-21T02:35:48;33.33;;;10.80;;
18114;SDS011;9184;54.390;18.620;2024-02-21T02:36:19;33.80;;;9.87;;
18114;SDS011;9184;54.390;18.620;2024-02-21T02:36:50;25.90;;;9.27;;
18114;SDS011;9184;54.390;18.620;2024-02-21T02:37:20;31.37;;;10.83;;
18114;SDS011;9184;54.390;18.620;2024-02-21T02:37:51;40.03;;;10.82;;
18114;SDS011;9184;54.390;18.620;2024-02-21T02:38:21;40.42;;;10.13;;
18114;SDS011;9184;54.390;18.620;2024-02-21T02:38:54;37.15;;;8.70;;
18114;SDS011;9184;54.390;18.620;2024-02-21T02:39:24;30.23;;;8.40;;
18114;SDS011;9184;54.390;18.620;2024-02-21T02:39:55;34.37;;;8.63;;
18114;SDS011;9184;54.390;18.620;2024-02-21T02:40:25;38.45;;;9.35;;
18114;SDS011;9184;54.390;18.620;2024-02-21T02:40:57;23.23;;;7.60;;
18114;SDS011;9184;54.390;18.620;2024-02-21T02:41:28;28.65;;;8.85;;
18114;SDS011;9184;54.390;18.620;2024-02-21T02:41:58;29.37;;;7.43;;
18114;SDS011;9184;54.390;18.620;2024-02-21T02:42:29;30.88;;;7.50;;
18114;SDS011;9184;54.390;18.620;2024-02-21T02:43:00;30.48;;;8.05;;
18114;SDS011;9184;54.390;18.620;2024-02-21T02:43:31;35.08;;;7.80;;
18114;SDS011;9184;54.390;18.620;2024-02-21T02:44:02;30.75;;;7.85;;
18114;SDS011;9184;54.390;18.620;2024-02-21T02:44:32;26.98;;;7.63;;
18114;SDS011;9184;54.390;18.620;2024-02-21T02:45:03;28.07;;;8.20;;
18114;SDS011;9184;54.390;18.620;2024-02-21T02:45:34;23.27;;;7.30;;
18114;SDS011;9184;54.390;18.620;2024-02-21T02:46:05;28.52;;;7.25;;
18114;SDS011;9184;54.390;18.620;2024-02-21T02:46:35;23.35;;;7.47;;
18114;SDS011;9184;54.390;18.620;2024-02-21T02:47:06;26.92;;;8.35;;
18114;SDS011;9184;54.390;18.620;2024-02-21T02:47:39;27.70;;;7.05;;
18114;SDS011;9184;54.390;18.620;2024-02-21T02:48:10;34.47;;;8.70;;
18114;SDS011;9184;54.390;18.620;2024-02-21T02:48:40;27.80;;;7.68;;
18114;SDS011;9184;54.390;18.620;2024-02-21T02:49:12;28.35;;;8.20;;
18114;SDS011;9184;54.390;18.620;2024-02-21T02:49:42;27.95;;;6.75;;
18114;SDS011;9184;54.390;18.620;2024-02-21T02:50:14;33.10;;;8.77;;
18114;SDS011;9184;54.390;18.620;2024-02-21T02:50:45;36.53;;;8.23;;
18114;SDS011;9184;54.390;18.620;2024-02-21T02:51:16;23.15;;;6.07;;
18114;SDS011;9184;54.390;18.620;2024-02-21T02:51:47;37.38;;;8.32;;
18114;SDS011;9184;54.390;18.620;2024-02-21T02:52:18;24.92;;;7.25;;
18114;SDS011;9184;54.390;18.620;2024-02-21T02:52:50;23.02;;;6.70;;
18114;SDS011;9184;54.390;18.620;2024-02-21T02:53:20;25.52;;;7.63;;
18114;SDS011;9184;54.390;18.620;2024-02-21T02:53:51;28.35;;;7.60;;
18114;SDS011;9184;54.390;18.620;2024-02-21T02:54:22;22.15;;;6.95;;
18114;SDS011;9184;54.390;18.620;2024-02-21T02:54:54;24.02;;;7.00;;
18114;SDS011;9184;54.390;18.620;2024-02-21T02:55:26;27.00;;;7.18;;
18114;SDS011;9184;54.390;18.620;2024-02-21T02:55:56;28.77;;;8.18;;
18114;SDS011;9184;54.390;18.620;2024-02-21T02:56:27;25.92;;;7.15;;
18114;SDS011;9184;54.390;18.620;2024-02-21T02:56:58;29.90;;;7.93;;
18114;SDS011;9184;54.390;18.620;2024-02-21T02:57:29;28.17;;;7.00;;
18114;SDS011;9184;54.390;18.620;2024-02-21T02:57:59;20.80;;;7.10;;
18114;SDS011;9184;54.390;18.620;2024-02-21T02:58:30;32.72;;;7.93;;
18114;SDS011;9184;54.390;18.620;2024-02-21T02:59:02;29.33;;;7.85;;
18114;SDS011;9184;54.390;18.620;2024-02-21T02:59:33;27.60;;;7.45;;
18114;SDS011;9184;54.390;18.620;2024-02-21T03:00:04;25.55;;;7.20;;
18114;SDS011;9184;54.390;18.620;2024-02-21T03:00:36;30.75;;;7.15;;
18114;SDS011;9184;54.390;18.620;2024-02-21T03:01:09;26.00;;;7.40;;
18114;SDS011;9184;54.390;18.620;2024-02-21T03:01:40;36.05;;;7.85;;
18114;SDS011;9184;54.390;18.620;2024-02-21T03:02:10;20.67;;;6.40;;
18114;SDS011;9184;54.390;18.620;2024-02-21T03:02:41;27.05;;;7.40;;
18114;SDS011;9184;54.390;18.620;2024-02-21T03:03:13;30.88;;;7.75;;
18114;SDS011;9184;54.390;18.620;2024-02-21T03:03:43;28.13;;;8.10;;
18114;SDS011;9184;54.390;18.620;2024-02-21T03:04:15;26.50;;;7.80;;
18114;SDS011;9184;54.390;18.620;2024-02-21T03:04:47;25.77;;;7.47;;
18114;SDS011;9184;54.390;18.620;2024-02-21T03:05:17;27.42;;;8.02;;
18114;SDS011;9184;54.390;18.620;2024-02-21T03:05:48;25.27;;;7.25;;